createdAt,value
2022-09-13T00:03:45.026Z,14.73
2022-09-13T00:08:47.765Z,14.67
2022-09-13T00:13:50.300Z,14.62
2022-09-13T00:18:52.870Z,14.57
2022-09-13T00:23:55.813Z,14.16
2022-09-13T00:28:58.877Z,14.15
2022-09-13T00:34:00.832Z,14.13
2022-09-13T00:39:02.411Z,14.09
2022-09-13T00:44:05.092Z,13.80
2022-09-13T00:49:09.606Z,13.89
2022-09-13T00:54:12.933Z,13.99
2022-09-13T00:59:22.517Z,14.04
2022-09-13T01:04:27.897Z,14.06
2022-09-13T01:09:33.141Z,14.10
2022-09-13T01:14:35.956Z,14.03
2022-09-13T01:19:37.598Z,13.96
2022-09-13T01:25:10.139Z,13.96
2022-09-13T01:30:16.582Z,13.91
2022-09-13T01:35:40.343Z,13.71
2022-09-13T01:40:51.414Z,13.70
2022-09-13T01:46:05.257Z,13.71
2022-09-13T01:51:12.309Z,13.45
2022-09-13T01:56:25.348Z,13.27
2022-09-13T02:01:53.520Z,13.38
2022-09-13T02:07:05.356Z,13.46
2022-09-13T02:12:20.497Z,13.36
2022-09-13T02:17:28.018Z,13.25
2022-09-13T02:22:46.709Z,13.20
2022-09-13T02:27:53.899Z,13.07
2022-09-13T02:33:15.881Z,13.01
2022-09-13T02:38:24.862Z,12.99
2022-09-13T02:43:36.003Z,12.92
2022-09-13T02:48:58.900Z,12.75
2022-09-13T02:54:03.982Z,12.68
2022-09-13T02:59:23.227Z,12.68
2022-09-13T03:04:26.044Z,12.72
2022-09-13T03:09:28.074Z,12.76
2022-09-13T03:14:55.150Z,12.78
2022-09-13T03:20:19.228Z,12.75
2022-09-13T03:25:54.801Z,12.71
2022-09-13T03:31:23.429Z,12.70
2022-09-13T03:36:33.949Z,12.67
2022-09-13T03:41:42.060Z,12.60
2022-09-13T03:46:56.504Z,12.62
2022-09-13T03:51:59.192Z,12.66
2022-09-13T03:57:12.365Z,12.67
2022-09-13T04:02:15.314Z,12.65
2022-09-13T04:07:20.254Z,12.56
2022-09-13T04:12:22.051Z,12.45
2022-09-13T04:17:23.721Z,12.47
2022-09-13T04:22:25.578Z,12.36
2022-09-13T04:27:27.447Z,12.39
2022-09-13T04:32:29.682Z,12.40
2022-09-13T04:37:31.656Z,12.31
2022-09-13T04:42:33.223Z,12.21
2022-09-13T04:47:35.049Z,11.96
2022-09-13T04:52:36.890Z,11.95
2022-09-13T04:57:38.503Z,11.97
2022-09-13T05:02:40.274Z,12.06
2022-09-13T05:07:42.313Z,12.10
2022-09-13T05:12:43.916Z,12.10
2022-09-13T05:17:45.671Z,12.18
2022-09-13T05:22:47.612Z,12.39
2022-09-13T05:27:49.406Z,12.61
2022-09-13T05:32:51.485Z,12.84
2022-09-13T05:37:53.344Z,13.04
2022-09-13T05:42:55.279Z,13.23
2022-09-13T05:47:57.228Z,13.41
2022-09-13T05:52:58.901Z,13.59
2022-09-13T05:58:04.093Z,13.73
2022-09-13T06:03:06.769Z,13.94
2022-09-13T06:08:08.574Z,14.12
2022-09-13T06:13:10.611Z,14.23
2022-09-13T06:18:12.462Z,14.45
2022-09-13T06:23:15.098Z,14.67
2022-09-13T06:28:16.730Z,14.72
2022-09-13T06:33:18.341Z,14.75
2022-09-13T06:38:20.489Z,14.98
2022-09-13T06:43:22.275Z,15.24
2022-09-13T06:48:23.856Z,15.46
2022-09-13T06:53:25.553Z,15.63
2022-09-13T06:58:29.440Z,15.85
2022-09-13T07:03:31.198Z,16.06
2022-09-13T07:08:34.689Z,16.14
2022-09-13T07:13:36.373Z,16.29
2022-09-13T07:18:38.546Z,16.52
2022-09-13T07:23:40.622Z,16.67
2022-09-13T07:28:45.049Z,16.72
2022-09-13T07:33:47.997Z,17.12
2022-09-13T07:38:50.636Z,17.34
2022-09-13T07:43:52.873Z,17.08
2022-09-13T07:48:57.040Z,17.43
2022-09-13T07:54:01.026Z,17.52
2022-09-13T07:59:05.430Z,17.67
2022-09-13T08:04:09.470Z,17.89
2022-09-13T08:09:11.876Z,18.04
2022-09-13T08:14:16.262Z,18.21
2022-09-13T08:19:18.922Z,18.18
2022-09-13T08:24:22.041Z,18.36
2022-09-13T08:29:25.234Z,18.49
2022-09-13T08:34:27.273Z,18.63
2022-09-13T08:39:30.556Z,18.77
2022-09-13T08:44:59.178Z,18.90
2022-09-13T08:50:06.267Z,19.02
2022-09-13T08:55:48.917Z,19.08
2022-09-13T09:01:14.268Z,19.29
2022-09-13T09:06:17.757Z,19.45
2022-09-13T09:11:48.539Z,19.53
2022-09-13T09:17:26.373Z,19.57
2022-09-13T09:22:34.536Z,19.66
2022-09-13T09:27:36.424Z,19.66
2022-09-13T09:32:50.429Z,19.72
2022-09-13T09:38:10.739Z,19.90
2022-09-13T09:43:24.898Z,20.08
2022-09-13T09:48:45.784Z,20.09
2022-09-13T09:53:52.432Z,20.29
2022-09-13T09:58:55.880Z,20.39
2022-09-13T10:04:12.716Z,20.48
2022-09-13T10:09:14.481Z,20.66
2022-09-13T10:14:34.757Z,20.75
2022-09-13T10:19:38.098Z,20.90
2022-09-13T10:24:40.572Z,21.01
2022-09-13T10:29:48.961Z,21.08
2022-09-13T10:34:51.786Z,21.26
2022-09-13T10:40:02.647Z,21.39
2022-09-13T10:45:16.694Z,21.51
2022-09-13T10:50:26.614Z,21.67
2022-09-13T10:55:41.038Z,21.75
2022-09-13T11:01:01.420Z,21.92
2022-09-13T11:06:36.131Z,22.04
2022-09-13T11:11:45.838Z,22.15
2022-09-13T11:17:03.856Z,22.20
2022-09-13T11:22:30.467Z,22.26
2022-09-13T11:27:55.848Z,22.16
2022-09-13T11:33:21.829Z,22.10
2022-09-13T11:38:48.323Z,22.24
2022-09-13T11:43:57.629Z,22.06
2022-09-13T11:49:36.686Z,21.97
2022-09-13T11:55:02.930Z,22.25
2022-09-13T12:00:10.639Z,22.11
2022-09-13T12:05:22.807Z,22.42
2022-09-13T12:10:30.277Z,22.69
2022-09-13T12:15:39.364Z,22.90
2022-09-13T12:21:07.672Z,23.02
2022-09-13T12:26:18.858Z,23.14
2022-09-13T12:31:24.198Z,23.36
2022-09-13T12:36:29.033Z,23.18
2022-09-13T12:42:07.837Z,23.24
2022-09-13T12:47:15.269Z,23.19
2022-09-13T12:52:57.601Z,23.31
2022-09-13T12:58:32.930Z,23.58
2022-09-13T13:04:02.141Z,23.81
2022-09-13T13:09:29.085Z,23.95
2022-09-13T13:14:46.281Z,24.03
2022-09-13T13:19:47.948Z,24.13
2022-09-13T13:24:49.810Z,24.05
2022-09-13T13:30:29.117Z,24.06
2022-09-13T13:35:32.383Z,23.86
2022-09-13T13:40:34.931Z,23.74
2022-09-13T13:45:36.629Z,23.99
2022-09-13T13:51:12.985Z,24.08
2022-09-13T13:56:19.721Z,24.31
2022-09-13T14:01:26.266Z,24.41
2022-09-13T14:06:30.801Z,24.54
2022-09-13T14:11:32.343Z,24.74
2022-09-13T14:16:58.887Z,24.55
2022-09-13T14:22:21.908Z,24.50
2022-09-13T14:27:30.716Z,24.59
2022-09-13T14:32:42.439Z,24.76
2022-09-13T14:37:44.231Z,24.96
2022-09-13T14:42:48.101Z,24.98
2022-09-13T14:47:59.271Z,24.93
2022-09-13T14:53:03.708Z,24.95
2022-09-13T14:58:13.136Z,24.92
2022-09-13T15:03:18.129Z,24.84
2022-09-13T15:08:34.946Z,24.69
2022-09-13T15:13:38.418Z,24.39
2022-09-13T15:18:40.413Z,24.29
2022-09-13T15:23:49.168Z,24.19
2022-09-13T15:28:50.924Z,24.07
2022-09-13T15:34:31.253Z,23.98
2022-09-13T15:40:16.291Z,23.89
2022-09-13T15:45:20.449Z,23.74
2022-09-13T15:50:29.014Z,23.70
2022-09-13T15:55:31.179Z,23.67
2022-09-13T16:00:33.092Z,23.63
2022-09-13T16:05:36.599Z,23.58
2022-09-13T16:10:38.818Z,23.54
2022-09-13T16:15:40.718Z,23.43
2022-09-13T16:20:43.709Z,23.32
2022-09-13T16:25:45.545Z,23.21
2022-09-13T16:30:48.267Z,23.08
2022-09-13T16:35:49.913Z,22.97
2022-09-13T16:40:52.025Z,22.89
2022-09-13T16:45:53.871Z,22.86
2022-09-13T16:51:02.304Z,22.77
2022-09-13T16:56:15.704Z,22.68
2022-09-13T17:01:21.445Z,22.62
2022-09-13T17:06:24.873Z,22.54
2022-09-13T17:11:28.187Z,22.45
2022-09-13T17:16:31.578Z,22.38
2022-09-13T17:21:34.025Z,22.34
2022-09-13T17:26:36.370Z,22.24
2022-09-13T17:31:38.278Z,22.18
2022-09-13T17:36:41.397Z,22.09
2022-09-13T17:41:43.232Z,22.03
2022-09-13T17:46:45.151Z,21.94
2022-09-13T17:51:47.139Z,21.92
2022-09-13T17:56:50.521Z,21.87
2022-09-13T18:01:54.070Z,21.81
2022-09-13T18:06:56.217Z,21.74
2022-09-13T18:11:58.605Z,21.68
2022-09-13T18:17:00.162Z,21.63
2022-09-13T18:22:02.161Z,21.60
2022-09-13T18:27:04.326Z,21.53
2022-09-13T18:32:06.606Z,21.46
2022-09-13T18:37:08.378Z,21.45
2022-09-13T18:42:10.209Z,21.41
2022-09-13T18:47:13.169Z,21.35
2022-09-13T18:52:16.465Z,21.23
2022-09-13T18:57:18.293Z,21.22
2022-09-13T19:02:20.147Z,21.19
2022-09-13T19:07:22.427Z,21.12
2022-09-13T19:12:24.200Z,21.04
2022-09-13T19:17:25.795Z,20.96
2022-09-13T19:22:27.625Z,20.84
2022-09-13T19:27:29.213Z,20.75
2022-09-13T19:32:31.266Z,20.66
2022-09-13T19:37:33.312Z,20.59
2022-09-13T19:42:35.124Z,20.50
2022-09-13T19:48:25.874Z,20.41
2022-09-13T19:52:58.685Z,20.29
2022-09-13T19:58:01.095Z,20.25
2022-09-13T20:03:03.546Z,20.15
2022-09-13T20:08:06.273Z,20.04
2022-09-13T20:13:08.242Z,19.96
2022-09-13T20:18:15.445Z,19.87
2022-09-13T20:23:17.657Z,19.80
2022-09-13T20:28:19.829Z,19.72
2022-09-13T20:33:22.566Z,19.68
2022-09-13T20:38:25.629Z,19.63
2022-09-13T20:43:27.545Z,19.56
2022-09-13T20:48:29.397Z,19.51
2022-09-13T20:53:33.313Z,19.41
2022-09-13T20:58:38.836Z,19.22
2022-09-13T21:03:42.790Z,19.07
2022-09-13T21:08:46.841Z,19.04
2022-09-13T21:13:59.232Z,19.00
2022-09-13T21:19:01.252Z,18.97
2022-09-13T21:24:04.737Z,18.93
2022-09-13T21:29:06.549Z,18.90
2022-09-13T21:34:14.557Z,18.88
2022-09-13T21:39:16.870Z,18.85
2022-09-13T21:44:18.825Z,18.79
2022-09-13T21:49:20.820Z,18.77
2022-09-13T21:54:22.746Z,18.68
2022-09-13T21:59:24.611Z,18.48
2022-09-13T22:04:27.497Z,18.39
2022-09-13T22:09:29.589Z,18.38
2022-09-13T22:14:31.358Z,18.31
2022-09-13T22:19:32.997Z,18.29
2022-09-13T22:24:36.441Z,18.25
2022-09-13T22:29:38.180Z,18.19
2022-09-13T22:34:40.791Z,18.13
2022-09-13T22:39:42.454Z,18.09
2022-09-13T22:44:44.612Z,18.03
2022-09-13T22:49:46.393Z,18.02
2022-09-13T22:54:50.805Z,18.00
2022-09-13T22:59:52.726Z,17.92
2022-09-13T23:04:54.554Z,17.84
2022-09-13T23:09:56.270Z,17.82
2022-09-13T23:14:58.049Z,17.78
2022-09-13T23:19:59.799Z,17.75
2022-09-13T23:25:01.612Z,17.72
2022-09-13T23:30:03.745Z,17.67
2022-09-13T23:35:05.969Z,17.63
2022-09-13T23:40:08.171Z,17.56
2022-09-13T23:45:10.598Z,17.57
2022-09-13T23:50:12.201Z,17.60
2022-09-13T23:55:14.913Z,17.60
